createdAt,value
2018-01-10T00:00:35.404Z,9.35
2018-01-10T00:03:02.902Z,8.10
2018-01-10T00:05:31.123Z,8.30
2018-01-10T00:07:58.613Z,8.70
2018-01-10T00:10:26.867Z,8.68
2018-01-10T00:12:54.361Z,8.40
2018-01-10T00:15:22.629Z,7.97
2018-01-10T00:17:50.861Z,7.30
2018-01-10T00:20:18.326Z,8.15
2018-01-10T00:22:45.806Z,7.95
2018-01-10T00:25:13.278Z,8.68
2018-01-10T00:27:41.534Z,8.05
2018-01-10T00:30:09.002Z,7.65
2018-01-10T00:32:36.492Z,7.37
2018-01-10T00:35:04.710Z,9.23
2018-01-10T00:37:32.197Z,7.65
2018-01-10T00:39:59.666Z,7.97
2018-01-10T00:42:27.890Z,8.73
2018-01-10T00:44:55.386Z,8.32
2018-01-10T00:47:22.847Z,8.52
2018-01-10T00:49:50.310Z,7.72
2018-01-10T00:52:17.829Z,6.90
2018-01-10T00:54:45.272Z,8.40
2018-01-10T00:57:12.762Z,7.32
2018-01-10T00:59:40.222Z,8.25
2018-01-10T01:02:07.690Z,7.65
2018-01-10T01:04:35.171Z,7.47
2018-01-10T01:07:03.395Z,7.78
2018-01-10T01:09:30.878Z,9.77
2018-01-10T01:11:59.845Z,8.18
2018-01-10T01:14:27.358Z,7.20
2018-01-10T01:16:55.582Z,7.20
2018-01-10T01:19:23.046Z,7.50
2018-01-10T01:21:50.534Z,8.50
2018-01-10T01:24:18.049Z,7.30
2018-01-10T01:26:45.502Z,7.10
2018-01-10T01:29:13.026Z,7.18
2018-01-10T01:31:41.257Z,7.07
2018-01-10T01:34:08.725Z,7.45
2018-01-10T01:36:36.221Z,8.50
2018-01-10T01:39:04.466Z,7.03
2018-01-10T01:41:31.961Z,6.80
2018-01-10T01:44:00.178Z,7.85
2018-01-10T01:46:27.674Z,7.82
2018-01-10T01:48:55.130Z,7.75
2018-01-10T01:51:22.593Z,8.50
2018-01-10T01:53:50.098Z,8.60
2018-01-10T01:56:17.581Z,8.13
2018-01-10T01:58:45.039Z,7.60
2018-01-10T02:01:12.550Z,8.48
2018-01-10T02:03:40.779Z,7.78
2018-01-10T02:06:08.258Z,7.93
2018-01-10T02:08:35.761Z,8.90
2018-01-10T02:11:03.210Z,8.48
2018-01-10T02:13:30.702Z,8.70
2018-01-10T02:15:58.189Z,8.95
2018-01-10T02:18:25.646Z,7.70
2018-01-10T02:20:53.152Z,7.22
2018-01-10T02:23:20.612Z,7.25
2018-01-10T02:25:48.103Z,8.35
2018-01-10T02:28:15.630Z,8.77
2018-01-10T02:30:43.086Z,8.43
2018-01-10T02:33:10.558Z,7.50
2018-01-10T02:35:38.050Z,8.15
2018-01-10T02:38:05.531Z,7.75
2018-01-10T02:40:32.986Z,7.10
2018-01-10T02:43:00.481Z,7.93
2018-01-10T02:45:27.960Z,8.93
2018-01-10T02:47:55.446Z,8.43
2018-01-10T02:50:22.910Z,7.85
2018-01-10T02:52:50.422Z,8.27
2018-01-10T02:55:17.879Z,8.00
2018-01-10T02:57:45.343Z,8.95
2018-01-10T03:00:12.842Z,8.02
2018-01-10T03:02:40.314Z,8.07
2018-01-10T03:05:08.573Z,8.48
2018-01-10T03:07:36.030Z,7.70
2018-01-10T03:10:03.503Z,7.65
2018-01-10T03:12:31.761Z,7.75
2018-01-10T03:14:59.233Z,9.68
2018-01-10T03:17:26.750Z,8.00
2018-01-10T03:19:54.203Z,8.35
2018-01-10T03:22:21.666Z,8.40
2018-01-10T03:24:49.161Z,9.38
2018-01-10T03:27:16.634Z,7.95
2018-01-10T03:29:44.868Z,8.35
2018-01-10T03:32:12.369Z,8.15
2018-01-10T03:34:39.818Z,7.75
2018-01-10T03:37:07.314Z,8.35
2018-01-10T03:39:34.771Z,7.95
2018-01-10T03:42:02.291Z,7.97
2018-01-10T03:44:29.739Z,8.00
2018-01-10T03:46:57.210Z,6.72
2018-01-10T03:49:24.690Z,6.80
2018-01-10T03:51:52.913Z,7.62
2018-01-10T03:54:20.393Z,7.70
2018-01-10T03:56:47.865Z,7.80
2018-01-10T03:59:16.149Z,8.27
2018-01-10T04:01:43.610Z,8.25
2018-01-10T04:04:11.887Z,9.50
2018-01-10T04:06:40.142Z,7.40
2018-01-10T04:09:07.598Z,8.77
2018-01-10T04:11:35.110Z,8.07
2018-01-10T04:14:02.574Z,6.87
2018-01-10T04:16:30.054Z,7.50
2018-01-10T04:18:57.551Z,7.60
2018-01-10T04:21:25.028Z,7.55
2018-01-10T04:23:53.285Z,7.78
2018-01-10T04:26:21.514Z,9.40
2018-01-10T04:28:49.310Z,7.50
2018-01-10T04:31:16.794Z,8.27
2018-01-10T04:33:45.055Z,8.75
2018-01-10T04:36:12.584Z,8.75
2018-01-10T04:38:40.022Z,9.15
2018-01-10T04:41:07.536Z,8.98
2018-01-10T04:43:35.768Z,8.57
2018-01-10T04:46:03.227Z,8.52
2018-01-10T04:48:30.740Z,7.87
2018-01-10T04:50:58.999Z,8.80
2018-01-10T04:53:26.490Z,8.65
2018-01-10T04:55:53.950Z,9.35
2018-01-10T04:58:21.433Z,10.07
2018-01-10T05:00:48.936Z,9.25
2018-01-10T05:03:16.391Z,8.80
2018-01-10T05:05:43.910Z,9.00
2018-01-10T05:08:11.380Z,8.10
2018-01-10T05:10:38.854Z,8.57
2018-01-10T05:13:06.334Z,8.10
2018-01-10T05:15:34.562Z,8.52
2018-01-10T05:18:02.075Z,8.00
2018-01-10T05:20:30.283Z,8.45
2018-01-10T05:22:57.754Z,9.73
2018-01-10T05:25:25.249Z,8.65
2018-01-10T05:27:52.733Z,7.90
2018-01-10T05:30:20.234Z,7.95
2018-01-10T05:32:47.707Z,8.30
2018-01-10T05:35:15.178Z,9.48
2018-01-10T05:37:42.662Z,8.80
2018-01-10T05:40:10.890Z,8.57
2018-01-10T05:42:38.386Z,9.93
2018-01-10T05:45:06.615Z,8.73
2018-01-10T05:47:34.142Z,9.50
2018-01-10T05:50:02.366Z,8.10
2018-01-10T05:52:29.817Z,8.32
2018-01-10T05:54:57.301Z,9.77
2018-01-10T05:57:24.767Z,8.98
2018-01-10T05:59:52.247Z,9.85
2018-01-10T06:02:19.724Z,9.30
2018-01-10T06:04:47.210Z,9.73
2018-01-10T06:07:14.670Z,9.43
2018-01-10T06:09:42.162Z,9.52
2018-01-10T06:12:09.652Z,10.82
2018-01-10T06:14:37.138Z,9.82
2018-01-10T06:17:04.641Z,10.18
2018-01-10T06:19:32.878Z,9.65
2018-01-10T06:22:00.365Z,9.43
2018-01-10T06:24:27.826Z,8.70
2018-01-10T06:26:55.312Z,9.15
2018-01-10T06:29:22.818Z,9.55
2018-01-10T06:31:50.276Z,9.07
2018-01-10T06:34:17.782Z,9.68
2018-01-10T06:36:46.048Z,9.00
2018-01-10T06:39:13.512Z,8.63
2018-01-10T06:41:41.762Z,8.52
2018-01-10T06:44:09.272Z,9.25
2018-01-10T06:46:36.781Z,8.80
2018-01-10T06:49:04.265Z,11.12
2018-01-10T06:51:32.514Z,10.38
2018-01-10T06:54:00.036Z,10.13
2018-01-10T06:56:27.502Z,9.20
2018-01-10T06:58:54.999Z,10.07
2018-01-10T07:01:24.479Z,14.82
2018-01-10T07:03:51.944Z,14.32
2018-01-10T07:06:19.438Z,14.48
2018-01-10T07:08:47.657Z,13.98
2018-01-10T07:11:15.168Z,18.67
2018-01-10T07:13:43.421Z,18.75
2018-01-10T07:16:12.438Z,18.33
2018-01-10T07:18:39.948Z,16.98
2018-01-10T07:21:07.403Z,18.17
2018-01-10T07:23:34.882Z,17.58
2018-01-10T07:26:02.369Z,17.42
2018-01-10T07:28:30.631Z,16.95
2018-01-10T07:30:58.144Z,16.67
2018-01-10T07:33:25.606Z,16.42
2018-01-10T07:35:53.178Z,16.35
2018-01-10T07:38:21.619Z,15.45
2018-01-10T07:40:49.858Z,15.63
2018-01-10T07:43:17.399Z,14.93
2018-01-10T07:45:44.890Z,15.13
2018-01-10T07:48:12.423Z,14.98
2018-01-10T07:50:39.911Z,14.00
2018-01-10T07:53:07.365Z,13.30
2018-01-10T07:55:34.861Z,12.13
2018-01-10T07:58:02.367Z,13.38
2018-01-10T08:00:29.854Z,13.68
2018-01-10T08:02:58.090Z,13.60
2018-01-10T08:05:25.591Z,13.10
2018-01-10T08:07:53.826Z,13.25
2018-01-10T08:10:21.310Z,13.10
2018-01-10T08:12:48.809Z,13.90
2018-01-10T08:15:16.305Z,10.90
2018-01-10T08:17:43.774Z,12.75
2018-01-10T08:20:11.253Z,12.45
2018-01-10T08:22:39.636Z,12.35
2018-01-10T08:25:07.870Z,13.98
2018-01-10T08:27:35.352Z,11.05
2018-01-10T08:30:02.852Z,12.32
2018-01-10T08:32:31.110Z,18.67
2018-01-10T08:34:59.962Z,16.92
2018-01-10T08:37:27.481Z,15.68
2018-01-10T08:39:54.993Z,15.80
2018-01-10T08:42:22.481Z,14.60
2018-01-10T08:44:50.730Z,14.73
2018-01-10T08:47:18.202Z,14.55
2018-01-10T08:49:45.699Z,13.60
2018-01-10T08:52:13.206Z,15.20
2018-01-10T08:54:40.689Z,15.80
2018-01-10T08:57:08.971Z,15.40
2018-01-10T08:59:37.220Z,17.08
2018-01-10T09:02:04.732Z,19.65
2018-01-10T09:04:32.206Z,21.65
2018-01-10T09:06:59.702Z,17.60
2018-01-10T09:09:27.181Z,20.52
2018-01-10T09:11:55.450Z,19.05
2018-01-10T09:14:22.974Z,16.50
2018-01-10T09:16:50.450Z,17.12
2018-01-10T09:19:17.910Z,17.75
2018-01-10T09:21:45.449Z,18.15
2018-01-10T09:24:14.324Z,19.80
2018-01-10T09:26:41.835Z,18.87
2018-01-10T09:29:09.341Z,19.67
2018-01-10T09:31:36.809Z,18.20
2018-01-10T09:34:04.338Z,18.50
2018-01-10T09:36:31.799Z,17.05
2018-01-10T09:38:59.309Z,18.67
2018-01-10T09:41:26.808Z,17.48
2018-01-10T09:43:55.042Z,17.00
2018-01-10T09:46:22.558Z,17.10
2018-01-10T09:48:50.031Z,17.77
2018-01-10T09:51:17.521Z,17.55
2018-01-10T09:53:45.027Z,14.70
2018-01-10T09:56:12.513Z,17.90
2018-01-10T09:58:40.002Z,18.05
2018-01-10T10:01:07.490Z,18.77
2018-01-10T10:03:35.780Z,19.80
2018-01-10T10:06:03.230Z,21.35
2018-01-10T10:08:30.731Z,21.10
2018-01-10T10:10:58.255Z,20.17
2018-01-10T10:13:25.750Z,21.12
2018-01-10T10:15:53.208Z,19.27
2018-01-10T10:18:20.690Z,20.77
2018-01-10T10:20:48.167Z,19.98
2018-01-10T10:23:16.433Z,19.67
2018-01-10T10:25:43.906Z,19.80
2018-01-10T10:28:12.221Z,20.50
2018-01-10T10:30:39.694Z,20.67
2018-01-10T10:33:07.230Z,21.58
2018-01-10T10:35:34.740Z,19.70
2018-01-10T10:38:02.198Z,19.67
2018-01-10T10:40:30.447Z,20.75
2018-01-10T10:42:57.931Z,23.40
2018-01-10T10:45:26.182Z,20.67
2018-01-10T10:47:53.675Z,20.92
2018-01-10T10:50:21.131Z,19.85
2018-01-10T10:52:49.394Z,19.42
2018-01-10T10:55:16.874Z,19.77
2018-01-10T10:57:45.149Z,22.27
2018-01-10T11:00:13.427Z,20.70
2018-01-10T11:02:41.689Z,20.90
2018-01-10T11:05:09.174Z,20.05
2018-01-10T11:07:37.439Z,20.27
2018-01-10T11:10:04.940Z,18.58
2018-01-10T11:12:32.394Z,15.65
2018-01-10T11:14:59.866Z,13.80
2018-01-10T11:17:27.366Z,11.52
2018-01-10T11:19:54.854Z,10.73
2018-01-10T11:22:22.333Z,7.03
2018-01-10T11:24:49.832Z,6.93
2018-01-10T11:27:18.100Z,7.75
2018-01-10T11:29:45.550Z,8.45
2018-01-10T11:32:13.063Z,6.22
2018-01-10T11:34:40.529Z,7.55
2018-01-10T11:37:07.997Z,7.90
2018-01-10T11:39:35.515Z,6.15
2018-01-10T11:42:03.752Z,4.72
2018-01-10T11:44:31.248Z,5.35
2018-01-10T11:47:00.222Z,5.95
2018-01-10T11:49:27.737Z,4.35
2018-01-10T11:51:55.199Z,3.40
2018-01-10T11:54:22.711Z,3.70
2018-01-10T11:56:50.985Z,3.25
2018-01-10T11:59:18.461Z,3.35
2018-01-10T12:01:46.741Z,2.58
2018-01-10T12:04:15.006Z,2.75
2018-01-10T12:06:43.250Z,3.42
2018-01-10T12:09:10.757Z,4.20
2018-01-10T12:11:38.232Z,2.85
2018-01-10T12:14:05.749Z,2.60
2018-01-10T12:16:34.014Z,3.10
2018-01-10T12:19:01.500Z,2.92
2018-01-10T12:21:29.791Z,3.33
2018-01-10T12:23:58.092Z,3.05
2018-01-10T12:26:25.593Z,2.72
2018-01-10T12:28:53.087Z,3.10
2018-01-10T12:31:20.614Z,3.00
2018-01-10T12:33:48.109Z,3.00
2018-01-10T12:36:15.606Z,3.65
2018-01-10T12:38:43.066Z,3.65
2018-01-10T12:41:10.612Z,3.00
2018-01-10T12:43:38.081Z,3.55
2018-01-10T12:46:05.566Z,3.53
2018-01-10T12:48:33.062Z,3.97
2018-01-10T12:51:00.533Z,3.90
2018-01-10T12:53:28.051Z,4.00
2018-01-10T12:55:55.507Z,3.22
2018-01-10T12:58:23.734Z,3.80
2018-01-10T13:00:51.249Z,4.12
2018-01-10T13:03:19.511Z,3.95
2018-01-10T13:05:47.006Z,3.93
2018-01-10T13:08:14.522Z,3.63
2018-01-10T13:10:42.019Z,4.35
2018-01-10T13:13:09.520Z,3.63
2018-01-10T13:15:37.065Z,3.80
2018-01-10T13:18:04.566Z,3.75
2018-01-10T13:20:32.068Z,3.57
2018-01-10T13:22:59.579Z,3.92
2018-01-10T13:25:27.046Z,3.60
2018-01-10T13:27:55.313Z,3.50
2018-01-10T13:30:22.800Z,3.87
2018-01-10T13:32:50.332Z,3.60
2018-01-10T13:35:17.811Z,3.62
2018-01-10T13:37:46.071Z,4.45
2018-01-10T13:40:15.112Z,4.43
2018-01-10T13:42:43.363Z,4.47
2018-01-10T13:45:11.616Z,4.10
2018-01-10T13:47:39.103Z,4.77
2018-01-10T13:50:07.346Z,4.50
2018-01-10T13:52:36.358Z,4.10
2018-01-10T13:55:04.619Z,4.40
2018-01-10T13:57:32.106Z,4.00
2018-01-10T14:00:00.386Z,5.20
2018-01-10T14:02:28.691Z,4.23
2018-01-10T14:08:27.158Z,3.85
2018-01-10T14:10:55.434Z,4.05
2018-01-10T14:13:23.695Z,3.70
2018-01-10T14:15:51.186Z,4.30
2018-01-10T14:18:18.668Z,4.70
2018-01-10T14:20:46.151Z,4.40
2018-01-10T14:23:13.644Z,5.03
2018-01-10T14:25:41.915Z,4.87
2018-01-10T14:28:09.463Z,4.20
2018-01-10T14:30:36.938Z,5.00
2018-01-10T14:33:05.166Z,5.30
2018-01-10T14:35:32.667Z,5.03
2018-01-10T14:38:00.917Z,5.82
2018-01-10T14:40:28.389Z,5.75
2018-01-10T14:42:55.934Z,6.62
2018-01-10T14:45:23.414Z,5.60
2018-01-10T14:47:50.903Z,6.10
2018-01-10T14:50:19.157Z,6.90
2018-01-10T14:52:46.664Z,6.25
2018-01-10T14:55:14.139Z,5.75
2018-01-10T14:57:41.669Z,7.32
2018-01-10T15:00:09.127Z,6.75
2018-01-10T15:02:40.877Z,7.40
2018-01-10T15:05:13.431Z,8.20
2018-01-10T15:07:41.163Z,9.32
2018-01-10T15:10:13.795Z,8.95
2018-01-10T15:12:46.591Z,7.12
2018-01-10T15:15:20.588Z,7.85
2018-01-10T15:17:52.017Z,8.20
2018-01-10T15:20:20.401Z,9.30
2018-01-10T15:22:49.262Z,9.18
2018-01-10T15:25:16.809Z,7.95
2018-01-10T15:27:46.210Z,9.77
2018-01-10T15:30:20.119Z,9.25
2018-01-10T15:32:47.762Z,8.35
2018-01-10T15:35:23.385Z,9.35
2018-01-10T15:37:51.204Z,8.20
2018-01-10T15:40:18.708Z,7.12
2018-01-10T15:42:47.017Z,8.20
2018-01-10T15:45:14.539Z,8.68
2018-01-10T15:47:42.779Z,62.00
2018-01-10T15:50:10.325Z,16.58
2018-01-10T15:52:37.823Z,19.48
2018-01-10T15:55:05.340Z,19.75
2018-01-10T15:57:32.860Z,16.65
2018-01-10T16:00:01.130Z,12.85
2018-01-10T16:02:29.444Z,22.48
2018-01-10T16:04:56.876Z,23.38
2018-01-10T16:07:25.397Z,20.65
2018-01-10T16:09:52.917Z,25.45
2018-01-10T16:12:25.271Z,17.37
2018-01-10T16:14:52.865Z,18.73
2018-01-10T16:17:20.676Z,14.35
2018-01-10T16:19:50.072Z,15.20
2018-01-10T16:22:17.614Z,12.40
2018-01-10T16:24:45.170Z,12.23
2018-01-10T16:27:12.701Z,9.17
2018-01-10T16:29:44.893Z,8.00
2018-01-10T16:32:12.493Z,11.65
2018-01-10T16:34:40.116Z,8.65
2018-01-10T16:37:09.260Z,25.85
2018-01-10T16:39:36.830Z,31.55
2018-01-10T16:42:04.572Z,60.70
2018-01-10T16:44:32.082Z,48.30
2018-01-10T16:47:07.419Z,27.95
2018-01-10T16:49:38.993Z,22.33
2018-01-10T16:52:14.352Z,14.48
2018-01-10T16:54:49.406Z,13.68
2018-01-10T16:57:17.351Z,12.77
2018-01-10T16:59:44.838Z,13.43
2018-01-10T17:02:12.309Z,13.00
2018-01-10T17:04:39.806Z,10.98
2018-01-10T17:07:07.268Z,10.40
2018-01-10T17:09:34.836Z,12.13
2018-01-10T17:12:02.328Z,10.13
2018-01-10T17:14:29.821Z,11.18
2018-01-10T17:16:58.105Z,10.50
2018-01-10T17:19:26.366Z,12.27
2018-01-10T17:21:53.860Z,11.48
2018-01-10T17:24:21.327Z,13.13
2018-01-10T17:26:48.841Z,13.50
2018-01-10T17:29:17.105Z,12.25
2018-01-10T17:31:44.649Z,11.18
2018-01-10T17:34:12.126Z,12.00
2018-01-10T17:36:39.600Z,11.85
2018-01-10T17:39:07.875Z,12.30
2018-01-10T17:41:36.115Z,13.10
2018-01-10T17:44:03.592Z,12.95
2018-01-10T17:46:31.078Z,13.07
2018-01-10T17:48:59.355Z,19.77
2018-01-10T17:51:27.625Z,24.12
2018-01-10T17:53:55.861Z,21.17
2018-01-10T17:56:23.349Z,17.75
2018-01-10T17:58:51.603Z,18.05
2018-01-10T18:01:19.141Z,15.73
2018-01-10T18:03:46.689Z,15.77
2018-01-10T18:06:14.156Z,13.70
2018-01-10T18:08:41.661Z,12.95
2018-01-10T18:11:09.139Z,14.38
2018-01-10T18:13:37.413Z,14.63
2018-01-10T18:16:05.699Z,13.25
2018-01-10T18:18:33.183Z,13.73
2018-01-10T18:21:00.682Z,15.35
2018-01-10T18:23:28.137Z,15.55
2018-01-10T18:25:56.406Z,15.88
2018-01-10T18:28:23.890Z,15.60
2018-01-10T18:30:52.166Z,14.80
2018-01-10T18:33:20.443Z,13.98
2018-01-10T18:35:48.730Z,16.08
2018-01-10T18:38:16.218Z,14.20
2018-01-10T18:40:43.684Z,15.27
2018-01-10T18:43:11.192Z,15.18
2018-01-10T18:45:38.684Z,14.80
2018-01-10T18:48:07.241Z,13.93
2018-01-10T18:50:35.502Z,14.70
2018-01-10T18:53:03.006Z,11.77
2018-01-10T18:55:30.500Z,12.02
2018-01-10T18:57:57.969Z,13.25
2018-01-10T19:00:25.477Z,27.98
2018-01-10T19:02:52.959Z,14.45
2018-01-10T19:05:20.438Z,17.83
2018-01-10T19:07:47.959Z,13.98
2018-01-10T19:10:15.433Z,13.90
2018-01-10T19:12:42.969Z,14.10
2018-01-10T19:15:11.212Z,15.13
2018-01-10T19:17:38.702Z,15.73
2018-01-10T19:20:06.950Z,15.52
2018-01-10T19:22:34.454Z,14.40
2018-01-10T19:25:01.953Z,15.52
2018-01-10T19:27:29.410Z,16.35
2018-01-10T19:29:56.911Z,17.15
2018-01-10T19:32:24.427Z,16.90
2018-01-10T19:34:51.903Z,18.55
2018-01-10T19:37:19.449Z,18.42
2018-01-10T19:39:46.926Z,17.20
2018-01-10T19:42:15.194Z,18.17
2018-01-10T19:44:42.666Z,17.95
2018-01-10T19:47:11.634Z,17.40
2018-01-10T19:49:39.158Z,19.25
2018-01-10T19:52:06.634Z,15.98
2018-01-10T19:54:34.130Z,16.92
2018-01-10T19:57:01.620Z,16.10
2018-01-10T19:59:29.098Z,16.77
2018-01-10T20:01:56.600Z,16.37
2018-01-10T20:04:24.092Z,25.75
2018-01-10T20:06:52.351Z,17.35
2018-01-10T20:09:20.594Z,15.40
2018-01-10T20:11:48.099Z,18.15
2018-01-10T20:14:15.563Z,16.42
2018-01-10T20:16:43.050Z,15.18
2018-01-10T20:19:10.563Z,15.20
2018-01-10T20:21:38.812Z,15.85
2018-01-10T20:24:06.270Z,14.48
2018-01-10T20:26:33.779Z,14.30
2018-01-10T20:29:01.244Z,16.35
2018-01-10T20:31:28.731Z,16.17
2018-01-10T20:33:56.223Z,15.50
2018-01-10T20:36:24.527Z,14.55
2018-01-10T20:38:52.015Z,15.70
2018-01-10T20:41:19.472Z,17.58
2018-01-10T20:43:46.968Z,19.10
2018-01-10T20:46:14.439Z,21.30
2018-01-10T20:48:42.704Z,20.37
2018-01-10T20:51:10.189Z,21.77
2018-01-10T20:53:37.699Z,19.45
2018-01-10T20:56:05.232Z,20.65
2018-01-10T20:58:32.727Z,19.70
2018-01-10T21:01:00.278Z,18.27
2018-01-10T21:03:27.758Z,16.92
2018-01-10T21:05:55.263Z,15.68
2018-01-10T21:08:22.770Z,17.92
2018-01-10T21:10:50.243Z,18.27
2018-01-10T21:13:19.234Z,19.00
2018-01-10T21:15:46.696Z,18.73
2018-01-10T21:18:14.977Z,19.33
2018-01-10T21:20:43.203Z,20.58
2018-01-10T21:23:10.697Z,21.20
2018-01-10T21:25:38.210Z,23.65
2018-01-10T21:28:05.671Z,21.73
2018-01-10T21:30:33.164Z,20.45
2018-01-10T21:33:00.630Z,21.25
2018-01-10T21:35:28.142Z,21.08
2018-01-10T21:37:55.618Z,22.65
2018-01-10T21:40:23.072Z,19.52
2018-01-10T21:42:50.628Z,20.40
2018-01-10T21:45:18.139Z,19.58
2018-01-10T21:47:46.390Z,19.80
2018-01-10T21:50:13.875Z,18.80
2018-01-10T21:52:42.121Z,20.73
2018-01-10T21:55:09.623Z,17.67
2018-01-10T21:57:37.110Z,19.58
2018-01-10T22:00:04.664Z,18.55
2018-01-10T22:02:32.129Z,18.48
2018-01-10T22:04:59.606Z,20.83
2018-01-10T22:07:27.111Z,21.98
2018-01-10T22:09:55.351Z,21.00
2018-01-10T22:12:22.842Z,21.12
2018-01-10T22:14:51.097Z,22.67
2018-01-10T22:17:18.593Z,19.55
2018-01-10T22:19:46.053Z,18.92
2018-01-10T22:22:13.546Z,19.58
2018-01-10T22:24:41.049Z,16.12
2018-01-10T22:27:09.290Z,16.08
2018-01-10T22:29:36.823Z,16.67
2018-01-10T22:32:04.291Z,15.70
2018-01-10T22:34:31.751Z,16.33
2018-01-10T22:36:59.247Z,17.27
2018-01-10T22:39:26.742Z,15.82
2018-01-10T22:41:54.235Z,18.50
2018-01-10T22:44:21.734Z,18.87
2018-01-10T22:46:49.963Z,18.90
2018-01-10T22:49:17.458Z,19.87
2018-01-10T22:51:44.942Z,17.55
2018-01-10T22:54:12.407Z,16.62
2018-01-10T22:56:39.913Z,18.20
2018-01-10T22:59:07.397Z,16.05
2018-01-10T23:01:35.662Z,17.00
2018-01-10T23:04:03.127Z,19.17
2018-01-10T23:06:30.619Z,17.48
2018-01-10T23:08:58.092Z,17.87
2018-01-10T23:11:25.612Z,20.73
2018-01-10T23:13:53.834Z,20.77
2018-01-10T23:16:21.297Z,20.02
2018-01-10T23:18:48.804Z,20.27
2018-01-10T23:21:16.260Z,19.55
2018-01-10T23:23:44.489Z,18.33
2018-01-10T23:26:12.000Z,17.65
2018-01-10T23:28:40.210Z,17.67
2018-01-10T23:31:07.673Z,15.90
2018-01-10T23:33:35.180Z,17.17
2018-01-10T23:36:02.650Z,15.05
2018-01-10T23:38:30.913Z,15.30
2018-01-10T23:40:58.375Z,15.00
2018-01-10T23:43:26.673Z,14.00
2018-01-10T23:45:54.902Z,14.73
2018-01-10T23:48:22.388Z,14.60
2018-01-10T23:50:49.887Z,13.30
2018-01-10T23:53:17.339Z,13.45
2018-01-10T23:55:44.845Z,14.15
2018-01-10T23:58:12.318Z,13.98
